createdAt,value
2022-12-23T08:06:55.999Z,35.25
2022-12-23T08:09:22.803Z,37.85
2022-12-23T08:11:49.647Z,37.85
2022-12-23T08:14:16.554Z,37.92
2022-12-23T08:16:44.146Z,38.35
2022-12-23T08:19:11.412Z,37.03
2022-12-23T08:21:38.279Z,39.97
2022-12-23T08:24:05.379Z,35.65
2022-12-23T12:01:26.065Z,53.20
2022-12-23T12:04:00.635Z,52.22
2022-12-23T12:06:28.475Z,52.20
2022-12-23T12:08:58.252Z,49.95
2022-12-23T12:11:48.326Z,47.30
2022-12-23T12:14:57.674Z,46.28
2022-12-23T12:17:32.693Z,45.65
2022-12-23T12:20:05.348Z,43.03
2022-12-23T12:22:41.124Z,46.35
2022-12-23T12:25:46.134Z,37.92
2022-12-23T12:28:28.097Z,37.00
2022-12-23T12:31:13.292Z,35.30
2022-12-23T12:34:01.658Z,36.95
2022-12-23T12:36:59.782Z,33.83
2022-12-23T12:39:38.401Z,35.53
2022-12-23T12:42:30.301Z,34.40
2022-12-23T12:45:14.369Z,33.75
2022-12-23T12:48:39.812Z,35.60
2022-12-23T12:51:15.962Z,35.08
2022-12-23T12:54:04.660Z,33.05
2022-12-23T12:56:48.162Z,32.25
2022-12-23T13:02:02.707Z,35.03
2022-12-23T13:04:58.359Z,36.25
2022-12-23T13:07:50.235Z,33.72
2022-12-23T13:10:19.925Z,35.20
2022-12-23T13:13:14.557Z,34.95
2022-12-23T13:15:56.683Z,34.08
2022-12-23T13:18:50.320Z,32.83
2022-12-23T13:21:23.264Z,35.65
2022-12-23T13:24:11.855Z,33.60
2022-12-23T13:27:02.747Z,32.47
2022-12-23T13:29:38.899Z,35.47
2022-12-23T13:32:36.623Z,33.17
2022-12-23T13:35:15.768Z,34.97
2022-12-23T13:37:51.520Z,36.15
2022-12-23T13:40:37.548Z,33.35
2022-12-23T13:43:12.630Z,34.63
2022-12-23T13:45:41.547Z,32.97
2022-12-23T13:48:48.199Z,34.22
2022-12-23T13:51:30.977Z,36.05
2022-12-23T13:54:07.532Z,35.83
2022-12-23T21:09:49.919Z,42.15
2022-12-23T21:12:16.778Z,43.08
2022-12-23T21:14:43.692Z,44.60
2022-12-23T21:17:10.611Z,44.38
2022-12-23T21:19:37.668Z,42.63
2022-12-23T21:22:04.545Z,42.80
2022-12-23T21:24:31.394Z,44.30
2022-12-23T21:27:01.318Z,42.42
2022-12-23T21:29:28.224Z,43.65
2022-12-23T21:31:55.492Z,45.92
2022-12-23T21:34:25.470Z,41.80
2022-12-23T21:36:52.367Z,42.22
2022-12-23T21:39:19.894Z,43.33
2022-12-23T21:41:49.124Z,42.55
2022-12-23T21:44:16.080Z,40.97
2022-12-23T21:46:43.207Z,43.40
2022-12-23T21:49:10.733Z,42.22
2022-12-23T21:51:41.729Z,41.05
2022-12-23T21:54:12.750Z,42.63
2022-12-23T21:56:40.634Z,41.83
2022-12-23T21:59:14.751Z,39.25
2022-12-23T22:01:42.683Z,40.92
2022-12-23T22:04:09.915Z,40.33
2022-12-23T22:06:40.331Z,41.38
2022-12-23T22:09:07.987Z,39.92
2022-12-23T22:11:36.401Z,39.58
2022-12-23T22:14:04.844Z,42.47
2022-12-23T22:16:32.606Z,43.75
2022-12-23T22:19:00.918Z,41.70
2022-12-23T22:21:30.328Z,42.65
2022-12-23T22:23:57.521Z,41.13
2022-12-23T22:26:27.784Z,40.92
2022-12-23T22:28:56.229Z,41.72
2022-12-23T22:31:33.894Z,42.97
2022-12-23T22:34:00.876Z,41.75
2022-12-23T22:36:27.919Z,41.58
2022-12-23T22:38:57.039Z,40.97
2022-12-23T22:41:25.350Z,39.70
2022-12-23T22:43:52.201Z,40.35
2022-12-23T22:46:19.714Z,43.20
2022-12-23T22:48:46.688Z,43.92
2022-12-23T22:51:16.060Z,42.63
